Time;durP1;ratioP1;P1;durP2;ratioP2;P2;SDS_P1;SDS_P2;PMS_P1;PMS_P2;Temp;Humidity;BMP_temperature;BMP_pressure;BME280_temperature;BME280_humidity;BME280_pressure;Samples;Min_cycle;Max_cycle;Signal;HPM_P1;HPM_P2
2022/05/17 00:00:15;;;;;;;36.93;29.17;;;17.70;99.90;;;;;;5076876;28;20445;-78
2022/05/17 00:02:42;;;;;;;42.83;31.20;;;17.70;99.90;;;;;;5077509;28;20441;-78
2022/05/17 00:05:09;;;;;;;38.80;27.37;;;17.70;99.90;;;;;;5074526;28;20927;-79
2022/05/17 00:07:38;;;;;;;39.47;30.23;;;17.80;99.90;;;;;;5060629;28;20548;-78
2022/05/17 00:10:05;;;;;;;41.93;31.03;;;17.80;99.90;;;;;;5050140;28;20485;-79
2022/05/17 00:12:33;;;;;;;37.63;28.00;;;17.70;99.90;;;;;;5060745;28;20853;-79
2022/05/17 00:14:59;;;;;;;41.33;31.87;;;17.80;99.90;;;;;;5060605;28;20474;-80
2022/05/17 00:17:26;;;;;;;39.27;29.30;;;17.80;99.90;;;;;;5063169;28;20557;-80
2022/05/17 00:19:53;;;;;;;37.50;32.17;;;17.70;99.90;;;;;;5073855;28;20525;-77
2022/05/17 00:22:20;;;;;;;33.00;28.77;;;17.60;99.90;;;;;;5060492;28;20472;-78
2022/05/17 00:24:48;;;;;;;36.57;29.80;;;17.70;99.90;;;;;;5059897;28;20510;-78
2022/05/17 00:27:15;;;;;;;38.60;31.60;;;17.70;99.90;;;;;;5059977;28;20530;-78
2022/05/17 00:29:42;;;;;;;37.50;28.63;;;17.60;99.90;;;;;;5059864;28;20461;-78
2022/05/17 00:32:09;;;;;;;41.07;32.87;;;17.60;99.90;;;;;;5059447;28;20485;-79
2022/05/17 00:34:36;;;;;;;45.37;32.60;;;17.60;99.90;;;;;;5059824;28;20813;-79
2022/05/17 00:37:03;;;;;;;34.43;26.93;;;17.60;99.90;;;;;;5059754;28;20475;-80
2022/05/17 00:39:31;;;;;;;29.83;25.60;;;17.60;99.90;;;;;;5064623;28;20441;-79
2022/05/17 00:41:59;;;;;;;34.43;29.40;;;17.60;99.90;;;;;;5077230;28;20484;-76
2022/05/17 00:44:45;;;;;;;39.90;31.50;;;17.60;99.90;;;;;;5061501;28;20448;-78
2022/05/17 00:47:17;;;;;;;45.90;33.83;;;17.50;99.90;;;;;;5067656;28;20511;-77
2022/05/17 00:49:49;;;;;;;43.07;32.57;;;17.50;99.90;;;;;;5066133;28;20477;-77
2022/05/17 00:52:21;;;;;;;44.93;33.77;;;17.30;99.90;;;;;;5075190;28;20588;-77
2022/05/17 00:54:50;;;;;;;41.28;32.92;;;17.30;99.90;;;;;;5065578;28;20501;-76
2022/05/17 00:57:32;;;;;;;46.20;34.07;;;17.20;99.90;;;;;;5064755;28;20230;-78
2022/05/17 01:00:02;;;;;;;44.87;33.50;;;17.10;99.90;;;;;;5054588;28;20439;-78
2022/05/17 01:02:31;;;;;;;43.33;32.30;;;17.10;99.90;;;;;;5065864;28;20452;-77
2022/05/17 01:04:59;;;;;;;43.15;32.75;;;17.10;99.90;;;;;;5065729;28;20558;-78
2022/05/17 01:07:31;;;;;;;41.33;32.93;;;17.10;99.90;;;;;;5065444;28;20282;-76
2022/05/17 01:09:58;;;;;;;47.55;36.38;;;17.00;99.90;;;;;;5065955;28;20452;-78
2022/05/17 01:12:26;;;;;;;40.33;33.90;;;17.10;99.90;;;;;;5067560;28;20226;-76
2022/05/17 01:14:58;;;;;;;51.60;35.33;;;17.00;99.90;;;;;;5080561;28;20227;-78
2022/05/17 01:17:25;;;;;;;50.10;35.50;;;17.00;99.90;;;;;;5067157;28;20255;-77
2022/05/17 01:19:52;;;;;;;49.57;35.93;;;17.00;99.90;;;;;;5070536;28;20535;-79
2022/05/17 01:22:21;;;;;;;41.92;33.58;;;17.00;99.90;;;;;;5064863;28;20467;-77
2022/05/17 01:24:49;;;;;;;43.63;34.28;;;17.00;99.90;;;;;;5073245;28;20228;-78
2022/05/17 01:27:22;;;;;;;45.85;35.45;;;17.00;99.90;;;;;;5071120;28;20257;-79
2022/05/17 01:29:50;;;;;;;44.15;33.25;;;17.00;99.90;;;;;;5085645;28;20357;-77
2022/05/17 01:32:18;;;;;;;42.50;33.97;;;17.00;99.90;;;;;;5073506;28;20302;-77
2022/05/17 01:34:45;;;;;;;43.60;33.50;;;17.00;99.90;;;;;;5069045;28;20252;-77
2022/05/17 01:37:15;;;;;;;47.03;34.20;;;17.00;99.90;;;;;;5064912;28;20865;-78
2022/05/17 01:39:44;;;;;;;44.47;32.85;;;17.00;99.90;;;;;;5061979;28;20601;-78
2022/05/17 01:42:12;;;;;;;39.63;30.67;;;17.00;99.90;;;;;;5058732;28;20226;-78
2022/05/17 01:44:41;;;;;;;40.42;33.13;;;17.00;99.90;;;;;;5059034;28;20540;-78
2022/05/17 01:47:08;;;;;;;39.15;32.72;;;17.00;99.90;;;;;;5065116;28;20324;-79
2022/05/17 01:49:35;;;;;;;45.05;30.60;;;17.00;99.90;;;;;;5070838;28;20211;-78
2022/05/17 01:52:02;;;;;;;49.88;35.35;;;17.00;99.90;;;;;;5078988;28;20206;-78
2022/05/17 01:54:29;;;;;;;41.53;30.43;;;17.10;99.90;;;;;;5054535;28;20209;-78
2022/05/17 01:56:57;;;;;;;46.27;32.20;;;16.90;99.90;;;;;;5056942;28;20464;-79
2022/05/17 01:59:24;;;;;;;40.42;32.08;;;16.90;99.90;;;;;;5058989;28;20440;-80
2022/05/17 02:01:51;;;;;;;37.60;31.70;;;16.80;99.90;;;;;;5057791;28;20250;-79
2022/05/17 02:04:18;;;;;;;48.43;35.00;;;16.90;99.90;;;;;;5077791;28;20505;-81
2022/05/17 02:06:44;;;;;;;41.38;32.17;;;16.90;99.90;;;;;;5064025;28;20456;-79
2022/05/17 02:09:12;;;;;;;39.15;31.77;;;16.80;99.90;;;;;;5060253;28;20236;-79
2022/05/17 02:11:38;;;;;;;44.92;34.10;;;16.80;99.90;;;;;;5056103;28;20275;-79
2022/05/17 02:14:08;;;;;;;40.60;34.30;;;16.80;99.90;;;;;;5054533;28;20320;-79
2022/05/17 02:16:36;;;;;;;47.20;35.97;;;16.80;99.90;;;;;;5043181;28;21060;-78
2022/05/17 02:19:04;;;;;;;37.78;32.00;;;16.80;99.90;;;;;;5062880;28;20464;-78
2022/05/17 02:21:31;;;;;;;45.20;35.57;;;16.70;99.90;;;;;;5063570;28;20318;-78
2022/05/17 02:23:58;;;;;;;37.40;30.47;;;16.70;99.90;;;;;;5076472;28;20524;-78
2022/05/17 02:26:24;;;;;;;42.40;33.83;;;16.80;99.90;;;;;;5059780;28;20532;-80
2022/05/17 02:28:51;;;;;;;40.35;31.67;;;16.70;99.90;;;;;;5071412;28;20485;-77
2022/05/17 02:31:20;;;;;;;40.00;31.58;;;16.80;99.90;;;;;;5062880;28;20202;-79
2022/05/17 02:33:47;;;;;;;42.50;32.50;;;16.80;99.90;;;;;;5065456;28;20222;-79
2022/05/17 02:36:14;;;;;;;38.70;28.92;;;16.80;99.90;;;;;;5058990;28;20264;-78
2022/05/17 02:38:43;;;;;;;43.70;31.23;;;16.70;99.90;;;;;;5063051;28;20234;-79
2022/05/17 02:41:10;;;;;;;48.55;35.03;;;16.60;99.90;;;;;;5083104;28;20189;-78
2022/05/17 02:43:37;;;;;;;45.10;33.47;;;16.70;99.90;;;;;;5097170;28;20256;-79
2022/05/17 02:46:04;;;;;;;41.92;33.30;;;16.70;99.90;;;;;;5097635;28;20202;-80
2022/05/17 02:48:32;;;;;;;43.33;35.08;;;16.70;99.90;;;;;;5080736;28;20221;-78
2022/05/17 02:51:08;;;;;;;45.70;33.47;;;16.70;99.90;;;;;;5077246;28;20194;-80
2022/05/17 02:53:34;;;;;;;41.30;33.55;;;16.60;99.90;;;;;;5077263;28;20511;-79
2022/05/17 02:56:01;;;;;;;45.13;34.03;;;16.60;99.90;;;;;;5076938;28;20192;-80
2022/05/17 02:58:28;;;;;;;49.85;36.58;;;16.50;99.90;;;;;;5077490;28;20232;-80
2022/05/17 03:00:55;;;;;;;44.97;33.38;;;16.50;99.90;;;;;;5081150;28;20264;-80
2022/05/17 03:03:22;;;;;;;52.05;37.80;;;16.40;99.90;;;;;;5080568;28;20225;-78
2022/05/17 03:05:50;;;;;;;51.63;36.08;;;16.40;99.90;;;;;;5081800;28;20559;-79
2022/05/17 03:08:17;;;;;;;44.70;35.58;;;16.40;99.90;;;;;;5084703;28;20203;-79
2022/05/17 03:10:44;;;;;;;48.40;36.97;;;16.40;99.90;;;;;;5085951;28;20200;-80
2022/05/17 03:13:11;;;;;;;55.08;36.45;;;16.30;99.90;;;;;;5077500;28;20238;-79
2022/05/17 03:15:38;;;;;;;51.97;38.15;;;16.40;99.90;;;;;;5080489;28;20251;-79
2022/05/17 03:18:06;;;;;;;48.05;36.65;;;16.40;99.90;;;;;;5080772;28;20238;-80
2022/05/17 03:20:32;;;;;;;47.55;38.30;;;16.30;99.90;;;;;;5088619;28;20246;-79
2022/05/17 03:23:01;;;;;;;44.15;37.10;;;16.30;99.90;;;;;;5098565;28;20200;-81
2022/05/17 03:25:27;;;;;;;50.60;36.25;;;16.30;99.90;;;;;;5080434;28;20212;-79
2022/05/17 03:27:55;;;;;;;49.58;35.95;;;16.30;99.90;;;;;;5080618;28;20222;-79
2022/05/17 03:30:22;;;;;;;46.65;33.15;;;16.30;99.90;;;;;;5083982;28;20206;-79
2022/05/17 03:32:49;;;;;;;53.97;38.22;;;16.40;99.90;;;;;;5100071;28;20218;-79
2022/05/17 03:35:16;;;;;;;45.85;34.85;;;16.40;99.90;;;;;;5079549;28;20203;-78
2022/05/17 03:37:43;;;;;;;49.00;35.78;;;16.40;99.90;;;;;;5074312;28;20221;-78
2022/05/17 03:40:12;;;;;;;47.85;35.22;;;16.50;99.90;;;;;;5068239;28;20216;-78
2022/05/17 03:42:39;;;;;;;50.25;36.38;;;16.30;99.90;;;;;;5061645;28;20288;-78
2022/05/17 03:45:08;;;;;;;47.25;32.03;;;16.60;99.90;;;;;;5070326;28;20209;-78
2022/05/17 03:47:35;;;;;;;41.53;32.78;;;16.60;99.90;;;;;;5073882;28;20293;-80
2022/05/17 03:50:03;;;;;;;45.10;34.25;;;16.60;99.90;;;;;;5070631;28;20300;-80
2022/05/17 03:52:31;;;;;;;43.85;31.85;;;16.60;99.90;;;;;;5072526;28;20203;-79
2022/05/17 03:54:59;;;;;;;43.77;31.97;;;16.70;99.90;;;;;;5064222;28;20292;-80
2022/05/17 03:57:29;;;;;;;37.90;31.73;;;16.70;99.90;;;;;;5064300;28;20494;-79
2022/05/17 03:59:56;;;;;;;41.75;32.60;;;16.70;99.90;;;;;;5064181;28;20223;-79
2022/05/17 04:02:24;;;;;;;39.17;30.50;;;16.70;99.90;;;;;;5064444;28;20296;-79
2022/05/17 04:04:53;;;;;;;35.95;29.30;;;16.80;99.90;;;;;;5074231;28;20205;-79
2022/05/17 04:07:19;;;;;;;38.95;29.50;;;16.70;99.90;;;;;;5061398;28;20226;-81
2022/05/17 04:09:47;;;;;;;36.63;29.40;;;16.70;99.90;;;;;;5053033;28;20217;-79
2022/05/17 04:12:14;;;;;;;35.80;29.10;;;16.90;99.90;;;;;;5075008;28;20202;-80
2022/05/17 04:14:42;;;;;;;42.20;28.55;;;16.90;99.90;;;;;;5087932;28;20555;-79
2022/05/17 04:17:10;;;;;;;36.83;28.15;;;16.80;99.90;;;;;;5082000;28;20252;-79
2022/05/17 04:19:38;;;;;;;39.80;29.27;;;16.90;99.90;;;;;;5078387;28;20198;-77
2022/05/17 04:22:07;;;;;;;39.40;28.70;;;16.90;99.90;;;;;;5064021;28;20206;-79
2022/05/17 04:24:35;;;;;;;33.63;27.20;;;16.80;99.90;;;;;;5062940;28;20224;-79
2022/05/17 04:27:01;;;;;;;31.57;26.97;;;16.80;99.90;;;;;;5060231;28;20232;-79
2022/05/17 04:29:28;;;;;;;35.80;25.10;;;16.90;99.90;;;;;;5062294;28;20489;-81
2022/05/17 04:31:57;;;;;;;38.08;26.02;;;17.00;99.90;;;;;;5062191;28;20229;-78
2022/05/17 04:34:24;;;;;;;37.00;27.47;;;17.10;99.90;;;;;;5046967;28;20286;-78
2022/05/17 04:36:50;;;;;;;33.20;26.20;;;17.10;99.90;;;;;;5066045;28;20549;-78
2022/05/17 04:39:17;;;;;;;31.50;24.80;;;17.20;99.90;;;;;;5067253;28;20501;-78
2022/05/17 04:41:44;;;;;;;32.27;25.27;;;17.30;99.90;;;;;;5054266;28;20492;-78
2022/05/17 04:44:11;;;;;;;30.10;23.17;;;17.40;99.90;;;;;;5067445;28;20501;-79
2022/05/17 04:46:38;;;;;;;25.60;21.73;;;17.40;99.90;;;;;;5068490;28;20518;-77
2022/05/17 04:49:07;;;;;;;33.27;22.83;;;17.50;99.90;;;;;;5068463;28;20453;-80
2022/05/17 04:51:35;;;;;;;29.87;24.20;;;17.50;99.90;;;;;;5068564;28;20434;-78
2022/05/17 04:54:02;;;;;;;27.10;24.10;;;17.60;99.90;;;;;;5067568;28;20483;-78
2022/05/17 04:56:29;;;;;;;27.67;22.60;;;17.60;99.90;;;;;;5062248;28;20474;-80
2022/05/17 04:58:56;;;;;;;25.57;20.87;;;17.60;99.90;;;;;;5062167;28;20533;-79
2022/05/17 05:01:24;;;;;;;29.97;21.57;;;17.70;99.90;;;;;;5066097;28;20517;-80
2022/05/17 05:03:51;;;;;;;27.93;22.50;;;17.80;99.90;;;;;;5066748;28;20456;-80
2022/05/17 05:06:19;;;;;;;32.07;21.97;;;18.10;99.90;;;;;;5062146;28;20497;-80
2022/05/17 05:08:46;;;;;;;25.87;20.20;;;18.10;99.90;;;;;;5061609;28;20511;-79
2022/05/17 05:11:14;;;;;;;24.57;20.53;;;18.20;99.90;;;;;;5061909;28;20449;-79
2022/05/17 05:13:40;;;;;;;21.40;17.60;;;18.40;99.90;;;;;;5063519;28;20508;-78
2022/05/17 05:16:10;;;;;;;24.67;19.33;;;18.50;99.90;;;;;;5082467;28;20485;-80
2022/05/17 05:18:37;;;;;;;22.10;17.90;;;18.60;99.90;;;;;;5068159;28;20464;-77
2022/05/17 05:21:05;;;;;;;21.13;18.50;;;18.90;99.90;;;;;;5062334;28;20493;-79
2022/05/17 05:23:34;;;;;;;21.63;15.63;;;19.40;99.90;;;;;;5048790;28;20446;-80
2022/05/17 05:26:01;;;;;;;22.97;16.33;;;20.00;99.90;;;;;;5052441;28;20450;-78
2022/05/17 05:28:28;;;;;;;20.90;15.83;;;20.20;99.90;;;;;;5062743;28;20520;-78
2022/05/17 05:30:56;;;;;;;19.57;17.47;;;20.30;99.90;;;;;;5070702;28;20454;-79
2022/05/17 05:33:23;;;;;;;20.50;16.70;;;20.70;99.90;;;;;;5091985;28;20504;-80
2022/05/17 05:35:51;;;;;;;17.60;14.13;;;21.30;99.90;;;;;;5077635;28;20425;-79
2022/05/17 05:38:18;;;;;;;22.90;14.60;;;22.00;99.90;;;;;;5077860;28;20458;-80
2022/05/17 05:40:46;;;;;;;24.10;15.50;;;22.40;99.90;;;;;;5078092;28;20429;-83
2022/05/17 05:43:15;;;;;;;16.70;14.43;;;22.60;99.90;;;;;;5078646;28;20491;-81
2022/05/17 05:45:42;;;;;;;15.90;14.03;;;23.20;99.90;;;;;;5077924;28;20418;-81
2022/05/17 05:48:09;;;;;;;15.57;12.43;;;23.80;99.90;;;;;;5091399;28;20453;-80
2022/05/17 05:50:37;;;;;;;19.93;10.90;;;24.70;99.90;;;;;;5078273;28;20468;-81
2022/05/17 05:53:06;;;;;;;15.83;10.67;;;25.50;99.90;;;;;;5077655;28;20446;-81
2022/05/17 05:55:34;;;;;;;16.30;13.53;;;26.30;99.90;;;;;;5078451;28;20430;-81
2022/05/17 05:58:03;;;;;;;18.43;13.17;;;27.00;97.30;;;;;;5077575;28;20473;-79
2022/05/17 06:00:31;;;;;;;17.37;10.80;;;27.80;95.10;;;;;;5056741;28;20433;-81
2022/05/17 06:02:58;;;;;;;16.37;11.30;;;28.30;93.50;;;;;;5069198;28;20485;-80
2022/05/17 06:05:26;;;;;;;17.97;11.93;;;28.60;91.70;;;;;;5070272;28;20450;-81
2022/05/17 06:07:53;;;;;;;16.90;12.10;;;28.00;91.30;;;;;;5058858;28;20477;-80
2022/05/17 06:10:22;;;;;;;16.83;11.77;;;27.60;92.90;;;;;;5058961;28;20485;-79
2022/05/17 06:12:49;;;;;;;14.90;10.53;;;27.20;92.90;;;;;;5059222;28;20489;-79
2022/05/17 06:15:18;;;;;;;15.43;11.43;;;27.00;93.60;;;;;;5060557;28;20489;-79
2022/05/17 06:17:45;;;;;;;12.73;10.30;;;27.10;93.10;;;;;;5062844;28;20462;-79
2022/05/17 06:20:14;;;;;;;14.23;10.57;;;27.50;93.00;;;;;;5059474;28;20561;-80
2022/05/17 06:22:42;;;;;;;16.43;10.63;;;27.90;92.00;;;;;;5059520;28;20820;-79
2022/05/17 06:25:09;;;;;;;17.33;11.00;;;28.50;91.20;;;;;;5065701;28;20477;-79
2022/05/17 06:27:36;;;;;;;14.20;10.10;;;28.80;90.20;;;;;;5058414;28;20477;-80
2022/05/17 06:30:04;;;;;;;18.67;10.77;;;28.90;88.70;;;;;;5065628;28;20488;-80
2022/05/17 06:32:33;;;;;;;17.43;11.17;;;29.30;88.30;;;;;;5062853;28;20527;-78
2022/05/17 06:35:00;;;;;;;17.03;10.33;;;29.40;87.80;;;;;;5075008;28;20491;-81
2022/05/17 06:37:27;;;;;;;17.63;10.10;;;29.60;86.60;;;;;;5081204;28;20454;-81
2022/05/17 06:39:55;;;;;;;15.97;9.40;;;29.60;85.50;;;;;;5080829;28;20476;-82
2022/05/17 06:42:22;;;;;;;15.40;9.77;;;29.60;85.50;;;;;;5081242;28;20442;-81
2022/05/17 06:44:49;;;;;;;14.37;9.70;;;29.60;85.20;;;;;;5093082;28;20461;-79
2022/05/17 06:47:16;;;;;;;20.87;10.40;;;29.70;85.70;;;;;;5080875;28;20504;-82
2022/05/17 06:49:44;;;;;;;21.43;10.77;;;30.10;84.80;;;;;;5095758;28;20425;-82
2022/05/17 06:52:11;;;;;;;12.90;9.87;;;29.90;83.40;;;;;;5090133;28;20501;-81
2022/05/17 06:54:40;;;;;;;16.63;13.00;;;29.70;83.70;;;;;;5070416;28;20505;-79
2022/05/17 06:57:09;;;;;;;17.97;10.70;;;29.50;84.90;;;;;;5079320;28;20468;-79
2022/05/17 06:59:37;;;;;;;13.53;10.10;;;29.20;85.30;;;;;;5072719;28;20501;-78
2022/05/17 07:02:05;;;;;;;17.20;11.33;;;28.70;86.20;;;;;;5084974;28;20454;-79
2022/05/17 07:04:33;;;;;;;17.20;11.10;;;28.10;87.70;;;;;;5069126;28;20441;-78
2022/05/17 07:07:02;;;;;;;20.40;11.07;;;27.80;88.80;;;;;;5050545;28;20873;-78
2022/05/17 07:09:31;;;;;;;16.00;12.37;;;27.40;89.70;;;;;;5062522;28;20452;-79
2022/05/17 07:14:42;;;;;;;12.13;8.60;;;27.80;90.30;;;;;;5071809;28;20471;-78
2022/05/17 07:17:15;;;;;;;18.73;9.83;;;28.60;87.30;;;;;;5060775;28;20537;-79
2022/05/17 07:19:43;;;;;;;17.30;9.10;;;29.20;86.00;;;;;;5060563;28;20450;-79
2022/05/17 07:22:13;;;;;;;13.17;9.43;;;29.00;84.40;;;;;;5071240;28;20449;-79
2022/05/17 07:24:45;;;;;;;12.90;8.10;;;28.60;85.30;;;;;;5061457;28;20450;-79
2022/05/17 07:27:14;;;;;;;13.23;8.43;;;29.00;85.60;;;;;;5077628;28;20464;-79
2022/05/17 07:29:43;;;;;;;17.17;9.73;;;28.80;84.50;;;;;;5055367;28;20450;-80
2022/05/17 07:32:12;;;;;;;15.70;9.40;;;28.40;85.70;;;;;;5062240;28;20477;-77
2022/05/17 07:34:39;;;;;;;17.47;10.37;;;28.00;86.70;;;;;;5061829;28;20478;-78
2022/05/17 07:37:06;;;;;;;14.80;10.13;;;27.40;88.20;;;;;;5061570;28;20469;-79
2022/05/17 07:39:34;;;;;;;14.37;9.57;;;26.80;90.30;;;;;;5060873;28;20519;-78
2022/05/17 07:42:02;;;;;;;13.43;8.00;;;26.40;91.20;;;;;;5061705;28;20947;-80
2022/05/17 07:44:31;;;;;;;16.33;10.17;;;26.20;91.90;;;;;;5061962;28;20923;-79
2022/05/17 07:46:58;;;;;;;12.30;9.00;;;25.70;92.30;;;;;;5060366;28;20557;-79
2022/05/17 07:49:24;;;;;;;11.10;8.20;;;25.40;93.60;;;;;;5063711;28;20587;-79
2022/05/17 07:51:52;;;;;;;13.53;8.83;;;25.10;94.40;;;;;;5075553;28;20480;-78
2022/05/17 07:54:19;;;;;;;15.17;9.43;;;24.60;95.10;;;;;;5060853;28;20474;-79
2022/05/17 07:56:47;;;;;;;17.03;10.10;;;24.30;96.80;;;;;;5076659;28;20544;-81
2022/05/17 07:59:14;;;;;;;15.00;8.40;;;24.40;97.00;;;;;;5062210;28;20506;-79
2022/05/17 08:01:41;;;;;;;17.30;9.70;;;24.30;97.90;;;;;;5060864;28;20553;-80
2022/05/17 08:04:08;;;;;;;13.80;9.70;;;24.80;97.20;;;;;;5072752;28;20453;-80
2022/05/17 08:06:36;;;;;;;14.63;9.17;;;24.90;95.80;;;;;;5066727;28;20523;-78
2022/05/17 08:09:03;;;;;;;15.77;9.90;;;24.60;96.60;;;;;;5072088;28;20474;-80
2022/05/17 08:11:30;;;;;;;15.80;8.47;;;25.10;96.20;;;;;;5060945;28;20559;-78
2022/05/17 08:13:59;;;;;;;14.93;9.57;;;26.40;95.00;;;;;;5062911;28;20446;-80
2022/05/17 08:16:26;;;;;;;15.03;8.40;;;28.10;91.40;;;;;;5065228;28;20462;-80
2022/05/17 08:18:53;;;;;;;14.80;8.83;;;28.80;90.00;;;;;;5061505;28;20473;-79
2022/05/17 08:21:20;;;;;;;11.30;8.23;;;29.40;86.70;;;;;;5063574;28;20810;-78
2022/05/17 08:23:47;;;;;;;18.03;9.27;;;30.00;85.10;;;;;;5081617;28;20548;-78
2022/05/17 08:29:00;;;;;;;13.07;8.20;;;30.20;83.30;;;;;;5060988;28;20441;-80
2022/05/17 08:31:27;;;;;;;14.87;8.27;;;30.00;80.80;;;;;;5072793;28;20541;-80
2022/05/17 08:33:53;;;;;;;23.00;9.10;;;30.20;82.30;;;;;;5072058;28;20544;-79
2022/05/17 08:36:19;;;;;;;16.80;9.33;;;30.90;81.40;;;;;;5062019;28;20485;-80
2022/05/17 08:38:48;;;;;;;18.17;7.53;;;31.20;78.90;;;;;;5060889;28;20313;-81
2022/05/17 08:41:24;;;;;;;14.50;8.00;;;30.50;80.30;;;;;;5080253;28;20456;-79
2022/05/17 08:43:55;;;;;;;11.20;9.10;;;30.40;80.10;;;;;;5082803;28;20457;-78
2022/05/17 08:46:34;;;;;;;13.20;7.80;;;30.40;80.00;;;;;;5072646;28;20946;-78
2022/05/17 08:49:15;;;;;;;14.30;8.23;;;29.30;81.30;;;;;;5073551;28;20499;-80
2022/05/17 08:51:44;;;;;;;15.13;7.50;;;29.30;83.40;;;;;;5059673;28;20456;-82
2022/05/17 08:54:15;;;;;;;19.80;10.20;;;29.30;83.60;;;;;;5061622;28;20841;-79
2022/05/17 08:56:46;;;;;;;18.27;9.40;;;28.70;84.40;;;;;;5080777;28;20554;-81
2022/05/17 08:59:17;;;;;;;17.40;8.40;;;28.20;86.60;;;;;;5062394;28;20450;-79
2022/05/17 09:01:50;;;;;;;11.70;7.17;;;28.00;87.30;;;;;;5061318;28;20530;-78
2022/05/17 09:04:34;;;;;;;16.03;7.97;;;27.90;87.90;;;;;;5063594;28;20632;-79
2022/05/17 09:07:13;;;;;;;11.33;7.70;;;27.60;88.10;;;;;;5073810;28;20438;-82
2022/05/17 09:09:51;;;;;;;13.50;8.80;;;27.10;90.10;;;;;;5077797;28;20613;-78
2022/05/17 09:12:25;;;;;;;13.33;8.53;;;26.80;90.70;;;;;;5069248;28;20432;-80
2022/05/17 09:14:56;;;;;;;19.53;8.60;;;26.20;90.90;;;;;;5077509;28;20480;-79
2022/05/17 09:17:25;;;;;;;13.37;9.37;;;26.10;92.00;;;;;;5078628;28;20517;-79
2022/05/17 09:19:53;;;;;;;13.90;9.20;;;25.70;92.50;;;;;;5063741;28;20461;-81
2022/05/17 09:22:21;;;;;;;21.37;9.57;;;25.30;93.90;;;;;;5059743;28;20479;-80
2022/05/17 09:24:53;;;;;;;9.83;8.87;;;25.00;94.80;;;;;;5064355;28;20502;-79
2022/05/17 09:27:25;;;;;;;17.10;9.73;;;25.10;95.20;;;;;;5056755;28;20472;-79
2022/05/17 09:29:57;;;;;;;12.30;8.53;;;25.00;95.00;;;;;;5058247;28;20442;-78
2022/05/17 09:32:29;;;;;;;12.63;8.53;;;25.10;95.30;;;;;;5051559;28;20438;-78
2022/05/17 09:35:00;;;;;;;11.80;8.33;;;25.10;95.00;;;;;;5060814;28;20473;-78
2022/05/17 09:37:33;;;;;;;13.27;8.30;;;25.70;95.00;;;;;;5063370;28;20492;-78
2022/05/17 09:40:04;;;;;;;12.43;9.03;;;27.00;92.60;;;;;;5059118;28;20815;-78
2022/05/17 09:42:34;;;;;;;12.70;8.73;;;27.50;91.00;;;;;;5063504;28;20448;-79
2022/05/17 09:45:04;;;;;;;17.70;10.13;;;27.30;91.10;;;;;;5061961;28;20515;-79
2022/05/17 09:47:34;;;;;;;12.00;8.70;;;27.00;91.40;;;;;;5076121;28;20529;-79
2022/05/17 09:53:01;;;;;;;10.37;7.47;;;26.80;91.50;;;;;;5079947;28;20432;-79
2022/05/17 09:55:31;;;;;;;16.50;8.80;;;27.70;90.10;;;;;;5062096;28;20477;-78
2022/05/17 09:58:02;;;;;;;10.53;8.00;;;28.40;88.60;;;;;;5062392;28;20462;-80
2022/05/17 10:00:35;;;;;;;11.63;7.40;;;28.40;87.40;;;;;;5067309;28;20887;-81
2022/05/17 10:03:06;;;;;;;14.73;7.20;;;28.40;87.60;;;;;;5061768;28;20465;-79
2022/05/17 10:05:46;;;;;;;12.80;7.93;;;28.20;87.50;;;;;;5061273;28;20505;-79
2022/05/17 10:08:32;;;;;;;10.97;8.00;;;27.90;88.40;;;;;;5048802;28;20537;-78
2022/05/17 10:11:12;;;;;;;13.43;7.20;;;28.10;88.00;;;;;;5075651;28;20503;-79
2022/05/17 10:13:59;;;;;;;14.40;9.03;;;28.60;87.50;;;;;;5066620;28;20442;-80
2022/05/17 10:16:30;;;;;;;12.07;6.87;;;28.50;86.40;;;;;;5041088;28;20475;-78
2022/05/17 10:19:03;;;;;;;11.60;7.37;;;28.70;86.80;;;;;;5075439;28;20444;-80
2022/05/17 10:21:36;;;;;;;12.23;8.33;;;27.90;86.60;;;;;;5080682;28;20582;-79
2022/05/17 10:24:12;;;;;;;13.97;8.60;;;27.30;89.30;;;;;;5065074;28;20454;-79
2022/05/17 10:26:43;;;;;;;13.97;8.43;;;26.70;90.00;;;;;;5060056;28;20467;-80
2022/05/17 10:29:20;;;;;;;14.73;8.67;;;26.00;91.40;;;;;;5068143;28;20496;-80
2022/05/17 10:31:55;;;;;;;11.60;8.43;;;25.60;92.60;;;;;;5068826;28;20491;-78
2022/05/17 10:34:34;;;;;;;12.60;8.10;;;25.40;93.60;;;;;;5058330;28;20512;-78
2022/05/17 10:37:06;;;;;;;12.90;6.37;;;25.30;93.10;;;;;;5060163;28;20460;-80
2022/05/17 10:39:38;;;;;;;9.03;7.83;;;25.30;93.30;;;;;;5067178;28;20442;-79
2022/05/17 10:42:06;;;;;;;18.23;9.70;;;25.00;93.90;;;;;;5060512;28;20431;-78
2022/05/17 10:44:41;;;;;;;12.80;9.20;;;24.70;94.70;;;;;;5060285;28;20449;-79
2022/05/17 10:47:15;;;;;;;11.23;8.53;;;24.50;95.40;;;;;;5059954;28;20469;-79
2022/05/17 10:49:54;;;;;;;10.60;8.87;;;24.40;96.10;;;;;;5058437;28;20425;-79
2022/05/17 10:52:29;;;;;;;14.33;8.00;;;24.60;96.00;;;;;;5068987;28;20803;-79
2022/05/17 10:55:05;;;;;;;11.47;7.50;;;25.10;96.10;;;;;;5060102;28;20469;-79
2022/05/17 10:57:41;;;;;;;10.87;7.07;;;25.70;95.00;;;;;;5061104;28;20489;-79
2022/05/17 11:00:14;;;;;;;12.27;8.63;;;25.90;93.50;;;;;;5060979;28;20464;-79
2022/05/17 11:02:58;;;;;;;15.23;7.57;;;25.80;93.10;;;;;;5053839;28;20497;-81
2022/05/17 11:05:34;;;;;;;8.20;7.00;;;25.30;93.90;;;;;;5061341;28;20441;-79
2022/05/17 11:08:14;;;;;;;9.23;6.50;;;25.30;94.50;;;;;;5064531;28;20540;-78
2022/05/17 11:10:53;;;;;;;10.67;7.33;;;25.70;94.40;;;;;;5059789;28;20553;-80
2022/05/17 11:13:28;;;;;;;9.03;7.40;;;25.90;93.60;;;;;;5060199;28;20533;-78
2022/05/17 11:16:01;;;;;;;9.17;6.30;;;26.30;92.40;;;;;;5060171;28;20481;-79
2022/05/17 11:18:38;;;;;;;6.57;5.40;;;26.40;92.10;;;;;;5062451;28;20549;-79
2022/05/17 11:21:11;;;;;;;6.87;5.00;;;26.50;91.90;;;;;;5071504;28;20464;-80
2022/05/17 11:23:45;;;;;;;8.03;5.70;;;26.60;91.20;;;;;;5067396;28;20495;-78
2022/05/17 11:26:42;;;;;;;10.50;4.80;;;26.60;91.00;;;;;;5051812;28;20445;-79
2022/05/17 11:29:46;;;;;;;17.83;5.97;;;26.30;90.80;;;;;;5073590;28;20446;-79
2022/05/17 11:32:28;;;;;;;11.47;6.00;;;26.50;91.50;;;;;;5069459;28;20871;-80
2022/05/17 11:34:56;;;;;;;7.93;6.53;;;26.80;91.40;;;;;;5075512;28;20425;-79
2022/05/17 11:37:46;;;;;;;8.53;5.27;;;26.90;90.70;;;;;;5078807;28;20492;-80
2022/05/17 11:40:51;;;;;;;9.93;4.87;;;26.70;90.60;;;;;;5061726;28;20468;-79
2022/05/17 11:46:06;;;;;;;5.30;4.00;;;26.10;90.70;;;;;;5061158;28;20441;-80
2022/05/17 11:48:47;;;;;;;8.73;5.07;;;25.70;91.00;;;;;;5067489;28;20466;-80
2022/05/17 11:51:14;;;;;;;9.07;4.57;;;25.70;91.50;;;;;;5072463;28;20453;-81
2022/05/17 11:53:46;;;;;;;9.87;7.10;;;25.90;91.20;;;;;;5062692;28;20496;-79
2022/05/17 11:56:16;;;;;;;15.30;6.57;;;26.00;91.40;;;;;;5062423;28;20474;-80
2022/05/17 11:58:45;;;;;;;12.37;6.27;;;26.10;91.50;;;;;;5062090;28;20454;-77
2022/05/17 12:01:43;;;;;;;10.37;6.20;;;26.10;91.40;;;;;;5063236;28;20440;-78
2022/05/17 12:04:39;;;;;;;12.10;6.23;;;25.40;91.50;;;;;;5073592;28;20441;-78
2022/05/17 12:07:26;;;;;;;11.90;4.60;;;25.00;92.40;;;;;;5062835;28;20490;-78
2022/05/17 12:09:56;;;;;;;8.67;4.20;;;24.80;91.90;;;;;;5064179;28;20483;-81
2022/05/17 12:12:57;;;;;;;4.80;3.20;;;24.50;91.60;;;;;;5072257;28;20446;-80
2022/05/17 12:15:33;;;;;;;10.30;5.43;;;24.50;91.00;;;;;;5078598;28;20474;-80
2022/05/17 12:18:27;;;;;;;7.53;5.20;;;24.80;91.20;;;;;;5078469;28;20496;-79
2022/05/17 12:21:21;;;;;;;6.00;3.27;;;25.20;91.40;;;;;;5070709;28;20480;-82
2022/05/17 12:23:53;;;;;;;6.83;3.83;;;25.50;90.80;;;;;;5072785;28;20509;-78
2022/05/17 12:26:32;;;;;;;7.83;3.13;;;25.70;89.60;;;;;;5063193;28;20513;-79
2022/05/17 12:30:52;;;;;;;8.03;3.70;;;26.00;88.90;;;;;;5064210;28;20515;-77
2022/05/17 12:31:45;;;;;;;8.80;3.33;;;26.30;87.90;;;;;;5063562;28;20489;-78
2022/05/17 12:34:15;;;;;;;6.30;3.70;;;26.30;86.50;;;;;;5061983;28;20449;-77
2022/05/17 12:36:42;;;;;;;8.43;3.27;;;26.20;86.60;;;;;;5073498;28;20259;-78
2022/05/17 12:44:48;;;;;;;8.90;4.80;;;26.00;88.30;;;;;;5071715;28;20510;-77
2022/05/17 12:47:21;;;;;;;8.67;3.67;;;25.90;88.30;;;;;;5072530;28;20549;-78
2022/05/17 12:49:53;;;;;;;6.57;2.97;;;25.80;86.90;;;;;;5060112;28;20450;-80
2022/05/17 12:52:29;;;;;;;9.30;3.10;;;25.90;86.10;;;;;;5063577;28;20878;-80
2022/05/17 12:54:59;;;;;;;8.97;3.30;;;26.30;84.10;;;;;;5060739;28;20468;-80
2022/05/17 12:57:38;;;;;;;6.20;2.70;;;26.30;83.60;;;;;;5060379;28;20484;-79
2022/05/17 13:00:12;;;;;;;5.27;2.40;;;26.00;82.60;;;;;;5061226;28;20924;-77
2022/05/17 13:02:44;;;;;;;5.00;2.67;;;26.10;81.80;;;;;;5059549;28;20553;-79
2022/05/17 13:05:28;;;;;;;6.60;2.80;;;26.10;82.30;;;;;;5062407;28;20446;-79